sensor_id;sensor_type;location;lat;lon;timestamp;temperature;humidity
10538;DHT22;5317;49.048;8.468;2023-01-24T00:02:11;8.70;63.50
10538;DHT22;5317;49.048;8.468;2023-01-24T00:04:38;8.70;63.40
10538;DHT22;5317;49.048;8.468;2023-01-24T00:07:05;8.70;63.10
10538;DHT22;5317;49.048;8.468;2023-01-24T00:09:32;8.70;63.20
10538;DHT22;5317;49.048;8.468;2023-01-24T00:11:58;8.70;63.10
10538;DHT22;5317;49.048;8.468;2023-01-24T00:14:28;8.70;62.90
10538;DHT22;5317;49.048;8.468;2023-01-24T00:16:55;8.70;63.00
10538;DHT22;5317;49.048;8.468;2023-01-24T00:19:24;8.70;62.80
10538;DHT22;5317;49.048;8.468;2023-01-24T00:21:57;8.70;62.70
10538;DHT22;5317;49.048;8.468;2023-01-24T00:24:33;8.70;63.70
10538;DHT22;5317;49.048;8.468;2023-01-24T00:27:01;8.70;63.20
10538;DHT22;5317;49.048;8.468;2023-01-24T00:29:27;8.60;63.30
10538;DHT22;5317;49.048;8.468;2023-01-24T00:31:54;8.60;63.30
10538;DHT22;5317;49.048;8.468;2023-01-24T00:34:21;8.50;63.30
10538;DHT22;5317;49.048;8.468;2023-01-24T00:36:55;8.50;63.20
10538;DHT22;5317;49.048;8.468;2023-01-24T00:39:22;8.50;64.10
10538;DHT22;5317;49.048;8.468;2023-01-24T00:41:49;8.50;64.20
10538;DHT22;5317;49.048;8.468;2023-01-24T00:44:16;8.50;63.70
10538;DHT22;5317;49.048;8.468;2023-01-24T00:46:43;8.50;63.40
10538;DHT22;5317;49.048;8.468;2023-01-24T00:49:10;8.60;63.30
10538;DHT22;5317;49.048;8.468;2023-01-24T00:51:37;8.60;63.20
10538;DHT22;5317;49.048;8.468;2023-01-24T00:54:05;8.60;63.30
10538;DHT22;5317;49.048;8.468;2023-01-24T00:56:32;8.60;62.90
10538;DHT22;5317;49.048;8.468;2023-01-24T00:58:58;8.60;62.90
10538;DHT22;5317;49.048;8.468;2023-01-24T01:01:25;8.60;63.00
10538;DHT22;5317;49.048;8.468;2023-01-24T01:03:54;8.60;63.00
10538;DHT22;5317;49.048;8.468;2023-01-24T01:06:23;8.60;63.20
10538;DHT22;5317;49.048;8.468;2023-01-24T01:08:50;8.60;63.10
10538;DHT22;5317;49.048;8.468;2023-01-24T01:11:19;8.60;63.90
10538;DHT22;5317;49.048;8.468;2023-01-24T01:13:46;8.60;63.20
10538;DHT22;5317;49.048;8.468;2023-01-24T01:16:16;8.60;63.20
10538;DHT22;5317;49.048;8.468;2023-01-24T01:18:43;8.60;63.20
10538;DHT22;5317;49.048;8.468;2023-01-24T01:21:12;8.60;63.30
10538;DHT22;5317;49.048;8.468;2023-01-24T01:23:39;8.60;63.20
10538;DHT22;5317;49.048;8.468;2023-01-24T01:26:08;8.60;63.20
10538;DHT22;5317;49.048;8.468;2023-01-24T01:28:37;8.60;63.10
10538;DHT22;5317;49.048;8.468;2023-01-24T01:31:04;8.60;63.20
10538;DHT22;5317;49.048;8.468;2023-01-24T01:33:31;8.60;63.10
10538;DHT22;5317;49.048;8.468;2023-01-24T01:35:58;8.60;63.00
10538;DHT22;5317;49.048;8.468;2023-01-24T01:38:25;8.60;63.00
10538;DHT22;5317;49.048;8.468;2023-01-24T01:40:53;8.60;63.00
10538;DHT22;5317;49.048;8.468;2023-01-24T01:43:22;8.50;63.00
10538;DHT22;5317;49.048;8.468;2023-01-24T01:45:52;8.50;63.20
10538;DHT22;5317;49.048;8.468;2023-01-24T01:48:22;8.50;63.30
10538;DHT22;5317;49.048;8.468;2023-01-24T01:50:56;8.50;63.20
10538;DHT22;5317;49.048;8.468;2023-01-24T01:53:28;8.50;63.20
10538;DHT22;5317;49.048;8.468;2023-01-24T01:56:00;8.40;63.30
10538;DHT22;5317;49.048;8.468;2023-01-24T01:58:28;8.50;63.40
10538;DHT22;5317;49.048;8.468;2023-01-24T02:00:57;8.50;63.30
10538;DHT22;5317;49.048;8.468;2023-01-24T02:03:31;8.50;63.40
10538;DHT22;5317;49.048;8.468;2023-01-24T02:06:08;8.50;63.50
10538;DHT22;5317;49.048;8.468;2023-01-24T02:08:38;8.50;63.50
10538;DHT22;5317;49.048;8.468;2023-01-24T02:11:07;8.40;63.60
10538;DHT22;5317;49.048;8.468;2023-01-24T02:13:52;8.40;63.60
10538;DHT22;5317;49.048;8.468;2023-01-24T02:16:40;8.40;64.30
10538;DHT22;5317;49.048;8.468;2023-01-24T02:19:07;8.50;63.60
10538;DHT22;5317;49.048;8.468;2023-01-24T02:21:38;8.50;63.60
10538;DHT22;5317;49.048;8.468;2023-01-24T02:24:09;8.50;63.30
10538;DHT22;5317;49.048;8.468;2023-01-24T02:26:42;8.60;63.20
10538;DHT22;5317;49.048;8.468;2023-01-24T02:29:11;8.60;63.10
10538;DHT22;5317;49.048;8.468;2023-01-24T02:31:53;8.60;63.00
10538;DHT22;5317;49.048;8.468;2023-01-24T02:34:20;8.70;63.10
10538;DHT22;5317;49.048;8.468;2023-01-24T02:36:51;8.60;63.10
10538;DHT22;5317;49.048;8.468;2023-01-24T02:39:23;8.60;63.20
10538;DHT22;5317;49.048;8.468;2023-01-24T02:41:54;8.60;63.20
10538;DHT22;5317;49.048;8.468;2023-01-24T02:44:27;8.60;63.30
10538;DHT22;5317;49.048;8.468;2023-01-24T02:46:55;8.70;63.30
10538;DHT22;5317;49.048;8.468;2023-01-24T02:49:22;8.60;63.20
10538;DHT22;5317;49.048;8.468;2023-01-24T02:51:49;8.60;63.30
10538;DHT22;5317;49.048;8.468;2023-01-24T02:54:33;8.50;63.40
10538;DHT22;5317;49.048;8.468;2023-01-24T02:57:01;8.50;63.40
10538;DHT22;5317;49.048;8.468;2023-01-24T02:59:46;8.50;63.50
10538;DHT22;5317;49.048;8.468;2023-01-24T03:02:12;8.50;63.50
10538;DHT22;5317;49.048;8.468;2023-01-24T03:04:39;8.50;63.50
10538;DHT22;5317;49.048;8.468;2023-01-24T03:07:06;8.50;63.50
10538;DHT22;5317;49.048;8.468;2023-01-24T03:09:33;8.50;63.60
10538;DHT22;5317;49.048;8.468;2023-01-24T03:12:02;8.50;64.30
10538;DHT22;5317;49.048;8.468;2023-01-24T03:14:47;8.60;64.40
10538;DHT22;5317;49.048;8.468;2023-01-24T03:17:32;8.60;63.50
10538;DHT22;5317;49.048;8.468;2023-01-24T03:20:16;8.60;63.60
10538;DHT22;5317;49.048;8.468;2023-01-24T03:23:01;8.50;63.50
10538;DHT22;5317;49.048;8.468;2023-01-24T03:25:45;8.60;63.70
10538;DHT22;5317;49.048;8.468;2023-01-24T03:28:31;8.60;63.60
10538;DHT22;5317;49.048;8.468;2023-01-24T03:31:15;8.60;64.00
10538;DHT22;5317;49.048;8.468;2023-01-24T03:33:59;8.60;64.00
10538;DHT22;5317;49.048;8.468;2023-01-24T03:36:44;8.50;63.50
10538;DHT22;5317;49.048;8.468;2023-01-24T03:39:11;8.60;63.60
10538;DHT22;5317;49.048;8.468;2023-01-24T03:41:55;8.50;63.60
10538;DHT22;5317;49.048;8.468;2023-01-24T03:44:23;8.50;63.50
10538;DHT22;5317;49.048;8.468;2023-01-24T03:46:50;8.60;64.40
10538;DHT22;5317;49.048;8.468;2023-01-24T03:49:17;8.60;63.50
10538;DHT22;5317;49.048;8.468;2023-01-24T03:51:58;8.60;63.50
10538;DHT22;5317;49.048;8.468;2023-01-24T03:54:42;8.60;63.50
10538;DHT22;5317;49.048;8.468;2023-01-24T03:57:09;8.60;63.40
10538;DHT22;5317;49.048;8.468;2023-01-24T03:59:37;8.60;63.50
10538;DHT22;5317;49.048;8.468;2023-01-24T04:02:04;8.60;63.60
10538;DHT22;5317;49.048;8.468;2023-01-24T04:04:31;8.60;63.60
10538;DHT22;5317;49.048;8.468;2023-01-24T04:07:18;8.60;63.50
10538;DHT22;5317;49.048;8.468;2023-01-24T04:09:45;8.60;63.50
10538;DHT22;5317;49.048;8.468;2023-01-24T04:12:12;8.60;63.50
10538;DHT22;5317;49.048;8.468;2023-01-24T04:14:40;8.60;63.80
10538;DHT22;5317;49.048;8.468;2023-01-24T04:17:08;8.60;63.40
10538;DHT22;5317;49.048;8.468;2023-01-24T04:19:35;8.60;63.50
10538;DHT22;5317;49.048;8.468;2023-01-24T04:22:02;8.60;63.50
10538;DHT22;5317;49.048;8.468;2023-01-24T04:24:28;8.60;63.50
10538;DHT22;5317;49.048;8.468;2023-01-24T04:26:55;8.60;63.40
10538;DHT22;5317;49.048;8.468;2023-01-24T04:29:22;8.60;63.50
10538;DHT22;5317;49.048;8.468;2023-01-24T04:31:51;8.60;63.50
10538;DHT22;5317;49.048;8.468;2023-01-24T04:34:18;8.60;63.60
10538;DHT22;5317;49.048;8.468;2023-01-24T04:36:44;8.60;63.60
10538;DHT22;5317;49.048;8.468;2023-01-24T04:39:11;8.60;63.60
10538;DHT22;5317;49.048;8.468;2023-01-24T04:41:38;8.60;63.50
10538;DHT22;5317;49.048;8.468;2023-01-24T04:44:05;8.60;63.40
10538;DHT22;5317;49.048;8.468;2023-01-24T04:46:32;8.60;63.50
10538;DHT22;5317;49.048;8.468;2023-01-24T04:49:00;8.70;63.50
10538;DHT22;5317;49.048;8.468;2023-01-24T04:51:27;8.60;64.20
10538;DHT22;5317;49.048;8.468;2023-01-24T04:53:54;8.70;63.60
10538;DHT22;5317;49.048;8.468;2023-01-24T04:56:21;8.70;63.50
10538;DHT22;5317;49.048;8.468;2023-01-24T04:58:48;8.70;63.30
10538;DHT22;5317;49.048;8.468;2023-01-24T05:01:15;8.70;63.30
10538;DHT22;5317;49.048;8.468;2023-01-24T05:03:41;8.70;63.30
10538;DHT22;5317;49.048;8.468;2023-01-24T05:06:10;8.70;63.30
10538;DHT22;5317;49.048;8.468;2023-01-24T05:08:36;8.70;63.30
10538;DHT22;5317;49.048;8.468;2023-01-24T05:11:04;8.70;63.30
10538;DHT22;5317;49.048;8.468;2023-01-24T05:13:31;8.70;63.30
10538;DHT22;5317;49.048;8.468;2023-01-24T05:15:58;8.70;63.40
10538;DHT22;5317;49.048;8.468;2023-01-24T05:18:24;8.70;63.50
10538;DHT22;5317;49.048;8.468;2023-01-24T05:20:51;8.70;63.30
10538;DHT22;5317;49.048;8.468;2023-01-24T05:23:19;8.70;63.30
10538;DHT22;5317;49.048;8.468;2023-01-24T05:25:46;8.70;63.30
10538;DHT22;5317;49.048;8.468;2023-01-24T05:28:13;8.70;63.30
10538;DHT22;5317;49.048;8.468;2023-01-24T05:30:40;8.70;63.20
10538;DHT22;5317;49.048;8.468;2023-01-24T05:33:07;8.70;63.20
10538;DHT22;5317;49.048;8.468;2023-01-24T05:35:33;8.70;63.20
10538;DHT22;5317;49.048;8.468;2023-01-24T05:38:00;8.70;63.10
10538;DHT22;5317;49.048;8.468;2023-01-24T05:40:28;8.70;63.00
10538;DHT22;5317;49.048;8.468;2023-01-24T05:42:55;8.70;63.10
10538;DHT22;5317;49.048;8.468;2023-01-24T05:45:23;8.70;62.90
10538;DHT22;5317;49.048;8.468;2023-01-24T05:47:50;8.70;63.00
10538;DHT22;5317;49.048;8.468;2023-01-24T05:50:17;8.70;63.00
10538;DHT22;5317;49.048;8.468;2023-01-24T05:52:43;8.70;63.00
10538;DHT22;5317;49.048;8.468;2023-01-24T05:55:10;8.70;63.00
10538;DHT22;5317;49.048;8.468;2023-01-24T05:57:38;8.70;63.00
10538;DHT22;5317;49.048;8.468;2023-01-24T06:00:06;8.70;63.10
10538;DHT22;5317;49.048;8.468;2023-01-24T06:02:34;8.70;63.30
10538;DHT22;5317;49.048;8.468;2023-01-24T06:05:00;8.70;63.50
10538;DHT22;5317;49.048;8.468;2023-01-24T06:07:27;8.70;63.40
10538;DHT22;5317;49.048;8.468;2023-01-24T06:09:54;8.70;63.30
10538;DHT22;5317;49.048;8.468;2023-01-24T06:12:21;8.70;63.30
10538;DHT22;5317;49.048;8.468;2023-01-24T06:14:49;8.70;63.30
10538;DHT22;5317;49.048;8.468;2023-01-24T06:17:16;8.70;63.20
10538;DHT22;5317;49.048;8.468;2023-01-24T06:19:43;8.60;63.10
10538;DHT22;5317;49.048;8.468;2023-01-24T06:22:16;8.70;63.30
10538;DHT22;5317;49.048;8.468;2023-01-24T06:24:44;8.70;63.40
10538;DHT22;5317;49.048;8.468;2023-01-24T06:27:11;8.70;63.40
10538;DHT22;5317;49.048;8.468;2023-01-24T06:29:39;8.70;63.50
10538;DHT22;5317;49.048;8.468;2023-01-24T06:32:19;8.70;63.40
10538;DHT22;5317;49.048;8.468;2023-01-24T06:35:09;8.80;63.50
10538;DHT22;5317;49.048;8.468;2023-01-24T06:37:45;8.70;63.40
10538;DHT22;5317;49.048;8.468;2023-01-24T06:40:15;8.70;63.30
10538;DHT22;5317;49.048;8.468;2023-01-24T06:42:43;8.70;63.60
10538;DHT22;5317;49.048;8.468;2023-01-24T06:45:10;8.70;63.60
10538;DHT22;5317;49.048;8.468;2023-01-24T06:47:38;8.70;63.60
10538;DHT22;5317;49.048;8.468;2023-01-24T06:50:06;8.70;63.70
10538;DHT22;5317;49.048;8.468;2023-01-24T06:52:34;8.70;63.60
10538;DHT22;5317;49.048;8.468;2023-01-24T06:55:00;8.70;63.60
10538;DHT22;5317;49.048;8.468;2023-01-24T06:57:27;8.70;63.60
10538;DHT22;5317;49.048;8.468;2023-01-24T06:59:54;8.70;63.60
10538;DHT22;5317;49.048;8.468;2023-01-24T07:02:21;8.70;63.50
10538;DHT22;5317;49.048;8.468;2023-01-24T07:04:49;8.70;63.60
10538;DHT22;5317;49.048;8.468;2023-01-24T07:07:16;8.70;63.70
10538;DHT22;5317;49.048;8.468;2023-01-24T07:09:43;8.70;64.50
10538;DHT22;5317;49.048;8.468;2023-01-24T07:12:10;8.70;63.80
10538;DHT22;5317;49.048;8.468;2023-01-24T07:14:37;8.70;63.80
10538;DHT22;5317;49.048;8.468;2023-01-24T07:17:04;8.80;63.80
10538;DHT22;5317;49.048;8.468;2023-01-24T07:19:31;8.70;63.70
10538;DHT22;5317;49.048;8.468;2023-01-24T07:22:00;8.70;63.70
10538;DHT22;5317;49.048;8.468;2023-01-24T07:24:29;8.70;63.90
10538;DHT22;5317;49.048;8.468;2023-01-24T07:26:57;8.70;63.70
10538;DHT22;5317;49.048;8.468;2023-01-24T07:29:24;8.70;63.80
10538;DHT22;5317;49.048;8.468;2023-01-24T07:31:52;8.70;63.70
10538;DHT22;5317;49.048;8.468;2023-01-24T07:34:19;8.70;63.70
10538;DHT22;5317;49.048;8.468;2023-01-24T07:36:46;8.70;63.60
10538;DHT22;5317;49.048;8.468;2023-01-24T07:39:15;8.80;63.70
10538;DHT22;5317;49.048;8.468;2023-01-24T07:41:42;8.80;63.60
10538;DHT22;5317;49.048;8.468;2023-01-24T07:44:09;8.80;63.80
10538;DHT22;5317;49.048;8.468;2023-01-24T07:46:37;8.80;63.50
10538;DHT22;5317;49.048;8.468;2023-01-24T07:49:04;8.80;63.80
10538;DHT22;5317;49.048;8.468;2023-01-24T07:51:31;8.80;63.70
10538;DHT22;5317;49.048;8.468;2023-01-24T07:53:57;8.80;63.60
10538;DHT22;5317;49.048;8.468;2023-01-24T07:56:27;8.80;63.80
10538;DHT22;5317;49.048;8.468;2023-01-24T07:58:54;8.80;63.70
10538;DHT22;5317;49.048;8.468;2023-01-24T08:01:22;8.80;63.60
10538;DHT22;5317;49.048;8.468;2023-01-24T08:03:49;8.80;63.80
10538;DHT22;5317;49.048;8.468;2023-01-24T08:06:16;8.80;63.80
10538;DHT22;5317;49.048;8.468;2023-01-24T08:08:44;8.80;63.50
10538;DHT22;5317;49.048;8.468;2023-01-24T08:11:10;8.80;63.20
10538;DHT22;5317;49.048;8.468;2023-01-24T08:13:42;8.80;63.40
10538;DHT22;5317;49.048;8.468;2023-01-24T08:16:09;8.80;63.60
10538;DHT22;5317;49.048;8.468;2023-01-24T08:18:37;8.90;63.60
10538;DHT22;5317;49.048;8.468;2023-01-24T08:21:04;8.80;63.50
10538;DHT22;5317;49.048;8.468;2023-01-24T08:23:31;8.90;63.50
10538;DHT22;5317;49.048;8.468;2023-01-24T08:25:58;8.90;63.60
10538;DHT22;5317;49.048;8.468;2023-01-24T08:28:25;8.80;63.60
10538;DHT22;5317;49.048;8.468;2023-01-24T08:30:55;8.80;63.60
10538;DHT22;5317;49.048;8.468;2023-01-24T08:33:23;8.80;63.60
10538;DHT22;5317;49.048;8.468;2023-01-24T08:35:50;8.80;63.60
10538;DHT22;5317;49.048;8.468;2023-01-24T08:38:16;8.80;63.60
10538;DHT22;5317;49.048;8.468;2023-01-24T08:40:43;8.90;63.80
10538;DHT22;5317;49.048;8.468;2023-01-24T08:43:10;8.80;63.60
10538;DHT22;5317;49.048;8.468;2023-01-24T08:45:37;8.90;63.80
10538;DHT22;5317;49.048;8.468;2023-01-24T08:48:06;8.90;63.70
10538;DHT22;5317;49.048;8.468;2023-01-24T08:50:33;8.90;63.60
10538;DHT22;5317;49.048;8.468;2023-01-24T08:53:01;8.90;63.60
10538;DHT22;5317;49.048;8.468;2023-01-24T08:55:28;8.90;63.30
10538;DHT22;5317;49.048;8.468;2023-01-24T08:57:59;8.90;63.50
10538;DHT22;5317;49.048;8.468;2023-01-24T09:00:26;8.90;63.60
10538;DHT22;5317;49.048;8.468;2023-01-24T09:02:53;8.90;63.60
10538;DHT22;5317;49.048;8.468;2023-01-24T09:05:21;8.90;64.30
10538;DHT22;5317;49.048;8.468;2023-01-24T09:07:48;8.90;63.40
10538;DHT22;5317;49.048;8.468;2023-01-24T09:10:15;8.90;63.40
10538;DHT22;5317;49.048;8.468;2023-01-24T09:12:42;8.90;63.10
10538;DHT22;5317;49.048;8.468;2023-01-24T09:15:09;8.90;63.30
10538;DHT22;5317;49.048;8.468;2023-01-24T09:17:36;8.90;63.40
10538;DHT22;5317;49.048;8.468;2023-01-24T09:20:04;8.90;63.30
10538;DHT22;5317;49.048;8.468;2023-01-24T09:22:33;8.90;63.20
10538;DHT22;5317;49.048;8.468;2023-01-24T09:25:00;9.00;63.40
10538;DHT22;5317;49.048;8.468;2023-01-24T09:27:27;9.00;63.50
10538;DHT22;5317;49.048;8.468;2023-01-24T09:29:53;9.00;63.10
10538;DHT22;5317;49.048;8.468;2023-01-24T09:32:20;9.10;63.10
10538;DHT22;5317;49.048;8.468;2023-01-24T09:34:47;9.00;62.90
10538;DHT22;5317;49.048;8.468;2023-01-24T09:37:16;9.10;63.10
10538;DHT22;5317;49.048;8.468;2023-01-24T09:39:45;9.10;62.90
10538;DHT22;5317;49.048;8.468;2023-01-24T09:42:22;9.10;62.80
10538;DHT22;5317;49.048;8.468;2023-01-24T09:44:59;9.10;62.90
10538;DHT22;5317;49.048;8.468;2023-01-24T09:47:37;9.10;62.90
10538;DHT22;5317;49.048;8.468;2023-01-24T09:50:13;9.10;62.90
10538;DHT22;5317;49.048;8.468;2023-01-24T09:52:44;9.10;62.80
10538;DHT22;5317;49.048;8.468;2023-01-24T09:55:16;9.10;62.70
10538;DHT22;5317;49.048;8.468;2023-01-24T09:57:51;9.10;62.60
10538;DHT22;5317;49.048;8.468;2023-01-24T10:00:24;9.10;62.80
10538;DHT22;5317;49.048;8.468;2023-01-24T10:02:53;9.10;62.70
10538;DHT22;5317;49.048;8.468;2023-01-24T10:05:21;9.10;62.60
10538;DHT22;5317;49.048;8.468;2023-01-24T10:08:11;9.10;63.40
10538;DHT22;5317;49.048;8.468;2023-01-24T10:10:52;9.10;62.80
10538;DHT22;5317;49.048;8.468;2023-01-24T10:13:39;9.00;62.80
10538;DHT22;5317;49.048;8.468;2023-01-24T10:16:18;9.00;63.60
10538;DHT22;5317;49.048;8.468;2023-01-24T10:19:01;9.00;62.80
10538;DHT22;5317;49.048;8.468;2023-01-24T10:21:56;9.00;62.90
10538;DHT22;5317;49.048;8.468;2023-01-24T10:24:32;9.00;63.00
10538;DHT22;5317;49.048;8.468;2023-01-24T10:27:13;8.90;63.00
10538;DHT22;5317;49.048;8.468;2023-01-24T10:29:43;9.00;63.20
10538;DHT22;5317;49.048;8.468;2023-01-24T10:32:14;9.10;63.10
10538;DHT22;5317;49.048;8.468;2023-01-24T10:34:44;9.20;62.90
10538;DHT22;5317;49.048;8.468;2023-01-24T10:37:19;9.20;62.90
10538;DHT22;5317;49.048;8.468;2023-01-24T10:39:47;9.30;62.80
10538;DHT22;5317;49.048;8.468;2023-01-24T10:42:23;9.30;62.50
10538;DHT22;5317;49.048;8.468;2023-01-24T10:44:51;9.30;62.40
10538;DHT22;5317;49.048;8.468;2023-01-24T10:47:38;9.30;62.40
10538;DHT22;5317;49.048;8.468;2023-01-24T10:50:07;9.30;62.40
10538;DHT22;5317;49.048;8.468;2023-01-24T10:52:35;9.40;62.40
10538;DHT22;5317;49.048;8.468;2023-01-24T10:55:03;9.40;62.40
10538;DHT22;5317;49.048;8.468;2023-01-24T10:57:38;9.40;62.40
10538;DHT22;5317;49.048;8.468;2023-01-24T11:00:19;9.40;62.20
10538;DHT22;5317;49.048;8.468;2023-01-24T11:02:53;9.40;62.30
10538;DHT22;5317;49.048;8.468;2023-01-24T11:05:22;9.50;62.50
10538;DHT22;5317;49.048;8.468;2023-01-24T11:07:51;9.50;62.40
10538;DHT22;5317;49.048;8.468;2023-01-24T11:10:22;9.50;62.40
10538;DHT22;5317;49.048;8.468;2023-01-24T11:12:52;9.50;63.20
10538;DHT22;5317;49.048;8.468;2023-01-24T11:15:23;9.50;63.00
10538;DHT22;5317;49.048;8.468;2023-01-24T11:17:56;9.50;62.30
10538;DHT22;5317;49.048;8.468;2023-01-24T11:20:30;9.40;62.10
10538;DHT22;5317;49.048;8.468;2023-01-24T11:23:05;9.40;62.00
10538;DHT22;5317;49.048;8.468;2023-01-24T11:25:33;9.40;62.20
10538;DHT22;5317;49.048;8.468;2023-01-24T11:28:01;9.40;62.30
10538;DHT22;5317;49.048;8.468;2023-01-24T11:30:28;9.40;62.30
10538;DHT22;5317;49.048;8.468;2023-01-24T11:33:15;9.40;62.20
10538;DHT22;5317;49.048;8.468;2023-01-24T11:35:48;9.50;62.20
10538;DHT22;5317;49.048;8.468;2023-01-24T11:38:28;9.50;62.20
10538;DHT22;5317;49.048;8.468;2023-01-24T11:41:14;9.50;62.30
10538;DHT22;5317;49.048;8.468;2023-01-24T11:44:15;9.60;62.00
10538;DHT22;5317;49.048;8.468;2023-01-24T11:46:50;9.60;62.10
10538;DHT22;5317;49.048;8.468;2023-01-24T11:49:42;9.60;62.10
10538;DHT22;5317;49.048;8.468;2023-01-24T11:52:28;9.60;62.00
10538;DHT22;5317;49.048;8.468;2023-01-24T11:55:10;9.60;62.00
10538;DHT22;5317;49.048;8.468;2023-01-24T11:57:44;9.60;62.10
10538;DHT22;5317;49.048;8.468;2023-01-24T12:00:27;9.60;62.20
10538;DHT22;5317;49.048;8.468;2023-01-24T12:03:22;9.60;62.40
10538;DHT22;5317;49.048;8.468;2023-01-24T12:05:58;9.60;62.20
10538;DHT22;5317;49.048;8.468;2023-01-24T12:11:26;9.70;62.20
10538;DHT22;5317;49.048;8.468;2023-01-24T12:16:53;9.60;62.40
10538;DHT22;5317;49.048;8.468;2023-01-24T12:19:37;9.60;62.00
10538;DHT22;5317;49.048;8.468;2023-01-24T12:22:14;9.60;62.00
10538;DHT22;5317;49.048;8.468;2023-01-24T12:24:45;9.60;62.20
10538;DHT22;5317;49.048;8.468;2023-01-24T12:27:15;9.60;62.10
10538;DHT22;5317;49.048;8.468;2023-01-24T12:29:46;9.60;62.10
10538;DHT22;5317;49.048;8.468;2023-01-24T12:32:20;9.60;62.10
10538;DHT22;5317;49.048;8.468;2023-01-24T12:34:53;9.60;62.10
10538;DHT22;5317;49.048;8.468;2023-01-24T12:37:27;9.70;62.20
10538;DHT22;5317;49.048;8.468;2023-01-24T12:40:00;9.70;62.10
10538;DHT22;5317;49.048;8.468;2023-01-24T12:42:40;9.70;62.30
10538;DHT22;5317;49.048;8.468;2023-01-24T12:45:14;9.70;62.10
10538;DHT22;5317;49.048;8.468;2023-01-24T12:47:48;9.70;62.00
10538;DHT22;5317;49.048;8.468;2023-01-24T12:50:25;9.80;62.20
10538;DHT22;5317;49.048;8.468;2023-01-24T12:53:01;9.80;62.20
10538;DHT22;5317;49.048;8.468;2023-01-24T12:55:34;9.80;62.50
10538;DHT22;5317;49.048;8.468;2023-01-24T12:58:13;9.80;62.30
10538;DHT22;5317;49.048;8.468;2023-01-24T13:01:04;9.80;62.20
10538;DHT22;5317;49.048;8.468;2023-01-24T13:03:50;9.80;62.10
10538;DHT22;5317;49.048;8.468;2023-01-24T13:06:32;9.70;62.20
10538;DHT22;5317;49.048;8.468;2023-01-24T13:09:10;9.70;62.30
10538;DHT22;5317;49.048;8.468;2023-01-24T13:11:42;9.60;62.40
10538;DHT22;5317;49.048;8.468;2023-01-24T13:14:19;9.70;62.60
10538;DHT22;5317;49.048;8.468;2023-01-24T13:23:13;9.70;62.30
10538;DHT22;5317;49.048;8.468;2023-01-24T13:26:12;9.70;62.20
10538;DHT22;5317;49.048;8.468;2023-01-24T13:32:08;9.60;62.30
10538;DHT22;5317;49.048;8.468;2023-01-24T13:34:50;9.60;62.50
10538;DHT22;5317;49.048;8.468;2023-01-24T13:37:24;9.60;62.50
10538;DHT22;5317;49.048;8.468;2023-01-24T13:40:01;9.60;62.40
10538;DHT22;5317;49.048;8.468;2023-01-24T13:42:33;9.60;62.50
10538;DHT22;5317;49.048;8.468;2023-01-24T13:48:43;9.60;62.40
10538;DHT22;5317;49.048;8.468;2023-01-24T13:54:20;9.70;62.50
10538;DHT22;5317;49.048;8.468;2023-01-24T13:57:26;9.60;62.20
10538;DHT22;5317;49.048;8.468;2023-01-24T14:00:19;9.60;62.30
10538;DHT22;5317;49.048;8.468;2023-01-24T14:03:04;9.60;62.30
10538;DHT22;5317;49.048;8.468;2023-01-24T14:05:46;9.60;62.20
10538;DHT22;5317;49.048;8.468;2023-01-24T14:11:32;9.60;62.40
10538;DHT22;5317;49.048;8.468;2023-01-24T14:19:56;9.50;62.30
10538;DHT22;5317;49.048;8.468;2023-01-24T14:22:36;9.60;62.40
10538;DHT22;5317;49.048;8.468;2023-01-24T14:25:27;9.60;62.30
10538;DHT22;5317;49.048;8.468;2023-01-24T14:28:00;9.60;62.60
10538;DHT22;5317;49.048;8.468;2023-01-24T14:30:33;9.60;62.30
10538;DHT22;5317;49.048;8.468;2023-01-24T14:33:22;9.60;62.20
10538;DHT22;5317;49.048;8.468;2023-01-24T14:36:01;9.60;62.20
10538;DHT22;5317;49.048;8.468;2023-01-24T14:38:43;9.60;62.30
10538;DHT22;5317;49.048;8.468;2023-01-24T14:41:19;9.60;62.90
10538;DHT22;5317;49.048;8.468;2023-01-24T14:43:49;9.70;62.40
10538;DHT22;5317;49.048;8.468;2023-01-24T14:46:20;9.70;62.30
10538;DHT22;5317;49.048;8.468;2023-01-24T14:48:57;9.70;62.20
10538;DHT22;5317;49.048;8.468;2023-01-24T14:51:29;9.60;62.20
10538;DHT22;5317;49.048;8.468;2023-01-24T14:53:56;9.70;62.50
10538;DHT22;5317;49.048;8.468;2023-01-24T14:56:26;9.60;62.20
10538;DHT22;5317;49.048;8.468;2023-01-24T14:59:09;9.60;62.30
10538;DHT22;5317;49.048;8.468;2023-01-24T15:01:39;9.60;62.30
10538;DHT22;5317;49.048;8.468;2023-01-24T15:04:29;9.70;62.30
10538;DHT22;5317;49.048;8.468;2023-01-24T15:07:10;9.70;62.10
10538;DHT22;5317;49.048;8.468;2023-01-24T15:09:37;9.70;63.00
10538;DHT22;5317;49.048;8.468;2023-01-24T15:12:24;9.60;62.20
10538;DHT22;5317;49.048;8.468;2023-01-24T15:14:56;9.60;62.30
10538;DHT22;5317;49.048;8.468;2023-01-24T15:17:29;9.60;62.30
10538;DHT22;5317;49.048;8.468;2023-01-24T15:19:58;9.60;62.20
10538;DHT22;5317;49.048;8.468;2023-01-24T15:22:27;9.60;62.20
10538;DHT22;5317;49.048;8.468;2023-01-24T15:24:55;9.60;62.20
10538;DHT22;5317;49.048;8.468;2023-01-24T15:30:29;9.70;62.50
10538;DHT22;5317;49.048;8.468;2023-01-24T15:33:02;9.60;62.10
10538;DHT22;5317;49.048;8.468;2023-01-24T15:35:36;9.70;62.30
10538;DHT22;5317;49.048;8.468;2023-01-24T15:38:23;9.70;63.00
10538;DHT22;5317;49.048;8.468;2023-01-24T15:40:54;9.70;62.50
10538;DHT22;5317;49.048;8.468;2023-01-24T15:43:27;9.60;62.30
10538;DHT22;5317;49.048;8.468;2023-01-24T15:46:26;9.60;62.30
10538;DHT22;5317;49.048;8.468;2023-01-24T15:49:30;9.60;62.40
10538;DHT22;5317;49.048;8.468;2023-01-24T15:54:51;9.50;62.60
10538;DHT22;5317;49.048;8.468;2023-01-24T15:57:26;9.50;63.40
10538;DHT22;5317;49.048;8.468;2023-01-24T15:59:56;9.50;62.80
10538;DHT22;5317;49.048;8.468;2023-01-24T16:02:25;9.50;62.60
10538;DHT22;5317;49.048;8.468;2023-01-24T16:04:59;9.50;62.40
10538;DHT22;5317;49.048;8.468;2023-01-24T16:07:26;9.50;62.60
10538;DHT22;5317;49.048;8.468;2023-01-24T16:09:53;9.50;62.60
10538;DHT22;5317;49.048;8.468;2023-01-24T16:12:27;9.50;62.60
10538;DHT22;5317;49.048;8.468;2023-01-24T16:14:55;9.50;62.60
10538;DHT22;5317;49.048;8.468;2023-01-24T16:17:23;9.50;62.60
10538;DHT22;5317;49.048;8.468;2023-01-24T16:19:53;9.50;62.60
10538;DHT22;5317;49.048;8.468;2023-01-24T16:22:19;9.50;62.70
10538;DHT22;5317;49.048;8.468;2023-01-24T16:24:46;9.50;62.60
10538;DHT22;5317;49.048;8.468;2023-01-24T16:27:14;9.50;62.60
10538;DHT22;5317;49.048;8.468;2023-01-24T16:29:41;9.40;62.70
10538;DHT22;5317;49.048;8.468;2023-01-24T16:32:19;9.40;62.90
10538;DHT22;5317;49.048;8.468;2023-01-24T16:34:46;9.40;63.00
10538;DHT22;5317;49.048;8.468;2023-01-24T16:37:15;9.40;62.90
10538;DHT22;5317;49.048;8.468;2023-01-24T16:39:43;9.40;62.90
10538;DHT22;5317;49.048;8.468;2023-01-24T16:42:13;9.40;62.70
10538;DHT22;5317;49.048;8.468;2023-01-24T16:44:41;9.40;62.60
10538;DHT22;5317;49.048;8.468;2023-01-24T16:47:08;9.40;62.50
10538;DHT22;5317;49.048;8.468;2023-01-24T16:49:35;9.40;62.90
10538;DHT22;5317;49.048;8.468;2023-01-24T16:52:02;9.40;62.70
10538;DHT22;5317;49.048;8.468;2023-01-24T16:54:30;9.40;62.60
10538;DHT22;5317;49.048;8.468;2023-01-24T16:56:57;9.40;62.70
10538;DHT22;5317;49.048;8.468;2023-01-24T16:59:24;9.40;62.50
10538;DHT22;5317;49.048;8.468;2023-01-24T17:01:51;9.40;62.50
10538;DHT22;5317;49.048;8.468;2023-01-24T17:04:17;9.40;62.50
10538;DHT22;5317;49.048;8.468;2023-01-24T17:06:44;9.40;62.50
10538;DHT22;5317;49.048;8.468;2023-01-24T17:09:11;9.40;62.70